Time;durP1;ratioP1;P1;durP2;ratioP2;P2;SDS_P1;SDS_P2;PMS_P1;PMS_P2;Temp;Humidity;BMP_temperature;BMP_pressure;BME280_temperature;BME280_humidity;BME280_pressure;Samples;Min_cycle;Max_cycle;Signal;HPM_P1;HPM_P2
2024/04/18 00:00:00;;;;;;;;;;;;;;;7.01;69.99;100690.25;4407481;26;20545;-67
2024/04/18 00:02:03;;;;;;;;;;;;;;;7.00;70.08;100699.28;4405794;26;20001;-68
2024/04/18 00:04:04;;;;;;;;;;;;;;;6.97;70.29;100694.22;4406074;26;19934;-68
2024/04/18 00:06:08;;;;;;;;;;;;;;;6.96;70.42;100699.75;4405074;26;19941;-68
2024/04/18 00:08:09;;;;;;;;;;;;;;;6.92;70.14;100693.88;4406977;26;20442;-68
2024/04/18 00:10:12;;;;;;;;;;;;;;;6.90;70.43;100698.56;4405023;26;19931;-68
2024/04/18 00:12:16;;;;;;;;;;;;;;;6.84;70.21;100707.22;4408275;26;20380;-67
2024/04/18 00:14:22;;;;;;;;;;;;;;;6.82;70.74;100701.16;4405580;26;19941;-67
2024/04/18 00:16:23;;;;;;;;;;;;;;;6.79;70.63;100706.84;4405288;26;19942;-68
2024/04/18 00:18:27;;;;;;;;;;;;;;;6.75;70.80;100706.28;4404805;26;20376;-68
2024/04/18 00:20:28;;;;;;;;;;;;;;;6.71;70.68;100702.25;4406203;26;19930;-67
2024/04/18 00:22:31;;;;;;;;;;;;;;;6.67;71.22;100712.41;4404783;26;20377;-68
2024/04/18 00:24:38;;;;;;;;;;;;;;;6.64;70.72;100710.03;4404900;26;20024;-68
2024/04/18 00:27:00;;;;;;;;;;;;;;;6.61;71.50;100714.88;4404331;26;19941;-68
2024/04/18 00:29:10;;;;;;;;;;;;;;;6.57;71.05;100717.03;4405135;26;19930;-67
2024/04/18 00:31:13;;;;;;;;;;;;;;;6.56;71.46;100717.19;4403651;26;19930;-67
2024/04/18 00:33:30;;;;;;;;;;;;;;;6.52;71.68;100716.63;4404148;26;19934;-67
2024/04/18 00:35:34;;;;;;;;;;;;;;;6.51;71.59;100716.78;4404471;26;19930;-67
2024/04/18 00:37:46;;;;;;;;;;;;;;;6.48;71.71;100721.44;4404981;26;19937;-67
2024/04/18 00:39:49;;;;;;;;;;;;;;;6.47;71.66;100719.78;4404699;26;20570;-67
2024/04/18 00:42:09;;;;;;;;;;;;;;;6.44;71.48;100721.91;4404386;26;20264;-67
2024/04/18 00:44:16;;;;;;;;;;;;;;;6.40;71.73;100718.69;4431137;26;19955;-67
2024/04/18 00:46:17;;;;;;;;;;;;;;;6.38;71.78;100712.63;4404566;26;19937;-68
2024/04/18 00:48:33;;;;;;;;;;;;;;;6.37;71.49;100724.34;4406573;26;19930;-68
2024/04/18 00:50:34;;;;;;;;;;;;;;;6.36;71.86;100728.00;4408649;26;19970;-68
2024/04/18 00:52:55;;;;;;;;;;;;;;;6.34;71.62;100721.13;4409472;26;20000;-68
2024/04/18 00:54:59;;;;;;;;;;;;;;;6.30;71.93;100725.91;4410072;26;20391;-68
2024/04/18 00:57:09;;;;;;;;;;;;;;;6.29;71.78;100730.44;4408352;26;19937;-67
2024/04/18 00:59:10;;;;;;;;;;;;;;;6.28;72.02;100731.44;4409190;26;19938;-68
2024/04/18 01:01:16;;;;;;;;;;;;;;;6.24;71.96;100727.38;4408839;26;20359;-68
2024/04/18 01:03:29;;;;;;;;;;;;;;;6.22;72.19;100729.38;4409019;26;19944;-68
2024/04/18 01:05:42;;;;;;;;;;;;;;;6.20;71.75;100731.34;4420759;26;20004;-68
2024/04/18 01:07:43;;;;;;;;;;;;;;;6.19;72.14;100731.50;4408430;26;19970;-67
2024/04/18 01:09:58;;;;;;;;;;;;;;;6.17;71.82;100733.50;4408888;26;20035;-67
2024/04/18 01:11:59;;;;;;;;;;;;;;;6.13;71.72;100731.09;4408172;26;20276;-68
2024/04/18 01:14:08;;;;;;;;;;;;;;;6.10;71.87;100735.94;4406716;26;20308;-68
2024/04/18 01:16:31;;;;;;;;;;;;;;;6.07;72.20;100736.22;4407632;26;19937;-67
2024/04/18 01:18:34;;;;;;;;;;;;;;;6.05;72.33;100738.19;4408384;26;19931;-68
2024/04/18 01:20:48;;;;;;;;;;;;;;;6.02;71.89;100731.31;4408104;26;20022;-68
2024/04/18 01:22:52;;;;;;;;;;;;;;;6.01;72.47;100736.81;4406953;26;20367;-68
2024/04/18 01:25:13;;;;;;;;;;;;;;;5.99;72.01;100736.09;4407982;26;19930;-67
2024/04/18 01:27:20;;;;;;;;;;;;;;;5.98;71.93;100740.63;4407655;26;19946;-67
2024/04/18 01:29:21;;;;;;;;;;;;;;;5.95;72.17;100743.56;4408559;26;20562;-67
2024/04/18 01:31:42;;;;;;;;;;;;;;;5.93;72.27;100740.19;4419738;26;19938;-67
2024/04/18 01:33:43;;;;;;;;;;;;;;;5.91;72.51;100744.88;4410368;26;20065;-67
2024/04/18 01:35:47;;;;;;;;;;;;;;;5.89;72.49;100747.69;4407919;26;20058;-67
2024/04/18 01:37:54;;;;;;;;;;;;;;;5.87;72.91;100741.59;4433515;26;20746;-67
2024/04/18 01:39:57;;;;;;;;;;;;;;;5.86;72.50;100741.75;4408200;26;19930;-67
2024/04/18 01:41:58;;;;;;;;;;;;;;;5.85;73.22;100742.75;4407272;26;19930;-67
2024/04/18 01:44:23;;;;;;;;;;;;;;;5.81;72.97;100744.03;4407869;26;19930;-67
2024/04/18 01:46:43;;;;;;;;;;;;;;;5.77;73.24;100746.16;4406863;26;19937;-68
2024/04/18 01:49:08;;;;;;;;;;;;;;;5.75;73.28;100750.81;4407984;26;19934;-68
2024/04/18 01:51:27;;;;;;;;;;;;;;;5.74;73.07;100752.66;4406047;26;19937;-67
2024/04/18 01:53:31;;;;;;;;;;;;;;;5.72;73.46;100751.09;4407775;26;19930;-67
2024/04/18 01:55:32;;;;;;;;;;;;;;;5.70;73.11;100748.56;4408390;26;19946;-67
2024/04/18 01:57:55;;;;;;;;;;;;;;;5.69;73.35;100748.72;4383104;26;19934;-67
2024/04/18 02:00:11;;;;;;;;;;;;;;;5.66;73.32;100749.00;4406973;26;19931;-67
2024/04/18 02:02:16;;;;;;;;;;;;;;;5.63;73.69;100755.50;4406495;26;19931;-67
2024/04/18 02:04:39;;;;;;;;;;;;;;;5.62;73.35;100761.00;4407708;26;19937;-67
2024/04/18 02:06:44;;;;;;;;;;;;;;;5.60;73.39;100759.31;4408682;26;19937;-67
2024/04/18 02:08:58;;;;;;;;;;;;;;;5.58;73.27;100761.31;4411180;26;20351;-66
2024/04/18 02:11:20;;;;;;;;;;;;;;;5.56;73.82;100757.06;4432112;26;19945;-65
2024/04/18 02:13:43;;;;;;;;;;;;;;;5.55;73.70;100768.78;4406693;26;19934;-65
2024/04/18 02:15:50;;;;;;;;;;;;;;;5.53;73.32;100763.56;4406106;26;20012;-65
2024/04/18 02:17:52;;;;;;;;;;;;;;;5.52;73.86;100763.72;4406397;26;20377;-65
2024/04/18 02:20:16;;;;;;;;;;;;;;;5.51;73.97;100765.53;4405968;26;19954;-65
2024/04/18 02:22:16;;;;;;;;;;;;;;;5.49;74.05;100769.38;4406255;26;19938;-66
2024/04/18 02:24:20;;;;;;;;;;;;;;;5.46;74.02;100767.81;4406806;26;19930;-66
2024/04/18 02:26:21;;;;;;;;;;;;;;;5.45;73.93;100775.97;4407906;26;20351;-65
2024/04/18 02:28:25;;;;;;;;;;;;;;;5.44;74.07;100771.59;4406944;26;19931;-66
2024/04/18 02:30:48;;;;;;;;;;;;;;;5.41;73.69;100770.91;4406147;26;19938;-66
2024/04/18 02:32:52;;;;;;;;;;;;;;;5.39;74.51;100772.91;4405258;26;20431;-66
2024/04/18 02:34:53;;;;;;;;;;;;;;;5.38;74.28;100773.88;4405693;26;20388;-65
2024/04/18 02:37:03;;;;;;;;;;;;;;;5.37;73.96;100776.69;4408098;26;19962;-66
2024/04/18 02:39:04;;;;;;;;;;;;;;;5.35;74.03;100781.34;4407490;26;19937;-65
2024/04/18 02:41:08;;;;;;;;;;;;;;;5.33;74.16;100773.47;4406067;26;20287;-66
2024/04/18 02:43:25;;;;;;;;;;;;;;;5.30;73.93;100773.75;4409382;26;19938;-65
2024/04/18 02:45:28;;;;;;;;;;;;;;;5.29;74.08;100780.06;4406802;26;20276;-66
2024/04/18 02:47:50;;;;;;;;;;;;;;;5.26;74.67;100782.19;4407115;26;20729;-65
2024/04/18 02:50:23;;;;;;;;;;;;;;;5.24;74.77;100785.03;4394348;26;20426;-65
2024/04/18 02:52:24;;;;;;;;;;;;;;;5.20;74.09;100789.81;4405943;26;19931;-65
2024/04/18 02:54:28;;;;;;;;;;;;;;;5.18;74.71;100789.09;4405411;26;19930;-65
2024/04/18 02:56:29;;;;;;;;;;;;;;;5.18;74.24;100791.78;4406410;26;19930;-65
2024/04/18 02:58:48;;;;;;;;;;;;;;;5.19;74.90;100789.97;4406201;26;19931;-65
2024/04/18 03:00:51;;;;;;;;;;;;;;;5.18;74.63;100791.78;4406227;26;20280;-65
2024/04/18 03:02:58;;;;;;;;;;;;;;;5.17;74.52;100791.91;4404207;26;19931;-66
2024/04/18 03:04:59;;;;;;;;;;;;;;;5.15;74.81;100796.56;4404652;26;20378;-66
2024/04/18 03:07:02;;;;;;;;;;;;;;;5.14;74.88;100795.75;4415128;26;19930;-65
2024/04/18 03:09:15;;;;;;;;;;;;;;;5.10;74.77;100791.63;4406123;26;19940;-65
2024/04/18 03:11:31;;;;;;;;;;;;;;;5.08;74.61;100790.06;4403876;26;19963;-65
2024/04/18 03:13:43;;;;;;;;;;;;;;;5.08;74.87;100798.97;4406812;26;19930;-66
2024/04/18 03:16:06;;;;;;;;;;;;;;;5.07;74.65;100799.94;4406998;26;19938;-65
2024/04/18 03:18:19;;;;;;;;;;;;;;;5.05;74.84;100808.13;4406440;26;20426;-66
2024/04/18 03:20:23;;;;;;;;;;;;;;;5.03;74.94;100809.22;4404998;26;19930;-66
2024/04/18 03:22:41;;;;;;;;;;;;;;;5.00;74.86;100807.69;4405822;26;19981;-66
2024/04/18 03:24:44;;;;;;;;;;;;;;;4.97;74.37;100810.66;4406735;26;19930;-66
2024/04/18 03:27:00;;;;;;;;;;;;;;;4.96;74.72;100808.13;4406714;26;20478;-66
2024/04/18 03:29:04;;;;;;;;;;;;;;;4.94;74.67;100812.78;4406318;26;19930;-66
2024/04/18 03:31:05;;;;;;;;;;;;;;;4.93;75.23;100811.91;4406790;26;19938;-65
2024/04/18 03:33:09;;;;;;;;;;;;;;;4.90;74.98;100814.03;4404665;26;19977;-65
2024/04/18 03:35:12;;;;;;;;;;;;;;;4.87;75.03;100821.34;4406477;26;20415;-65
2024/04/18 03:37:16;;;;;;;;;;;;;;;4.86;75.04;100832.19;4407584;26;19930;-65
2024/04/18 03:39:18;;;;;;;;;;;;;;;4.84;74.79;100824.31;4418827;26;20667;-65
2024/04/18 03:41:23;;;;;;;;;;;;;;;4.83;75.19;100824.44;4406693;26;19941;-65
2024/04/18 03:43:49;;;;;;;;;;;;;;;4.80;75.19;100822.03;4400971;26;19931;-65
2024/04/18 03:45:54;;;;;;;;;;;;;;;4.80;74.84;100827.38;4405933;26;19931;-66
2024/04/18 03:48:04;;;;;;;;;;;;;;;4.79;75.17;100831.03;4406798;26;19958;-66
2024/04/18 03:50:20;;;;;;;;;;;;;;;4.78;75.17;100829.34;4404628;26;20268;-66
2024/04/18 03:52:24;;;;;;;;;;;;;;;4.76;75.11;100829.47;4404152;26;19931;-66
2024/04/18 03:54:40;;;;;;;;;;;;;;;4.74;75.18;100836.78;4404776;26;19941;-66
2024/04/18 03:56:44;;;;;;;;;;;;;;;4.72;75.16;100835.22;4404260;26;19983;-65
2024/04/18 03:58:45;;;;;;;;;;;;;;;4.69;74.83;100837.22;4405337;26;19930;-66
2024/04/18 04:00:49;;;;;;;;;;;;;;;4.68;74.85;100835.50;4405531;26;19931;-66
2024/04/18 04:02:51;;;;;;;;;;;;;;;4.66;75.09;100845.50;4433289;26;19938;-66
2024/04/18 04:04:54;;;;;;;;;;;;;;;4.65;75.25;100838.44;4404776;26;19930;-66
2024/04/18 04:06:58;;;;;;;;;;;;;;;4.64;75.18;100846.59;4416034;26;19930;-66
2024/04/18 04:09:02;;;;;;;;;;;;;;;4.61;75.70;100847.75;4405592;26;20388;-65
2024/04/18 04:11:03;;;;;;;;;;;;;;;4.61;75.54;100847.75;4405149;26;19930;-66
2024/04/18 04:13:08;;;;;;;;;;;;;;;4.61;75.77;100850.44;4405520;26;20372;-65
2024/04/18 04:15:17;;;;;;;;;;;;;;;4.61;75.52;100850.44;4405647;26;19937;-66
2024/04/18 04:17:39;;;;;;;;;;;;;;;4.60;75.48;100851.41;4406206;26;20353;-66
2024/04/18 04:19:40;;;;;;;;;;;;;;;4.63;75.91;100855.63;4405193;26;19937;-66
2024/04/18 04:21:43;;;;;;;;;;;;;;;4.61;75.78;100857.63;4404289;26;19934;-66
2024/04/18 04:23:47;;;;;;;;;;;;;;;4.59;75.99;100855.06;4408609;26;20234;-65
2024/04/18 04:25:50;;;;;;;;;;;;;;;4.59;75.50;100863.09;4407442;26;19931;-65
2024/04/18 04:27:51;;;;;;;;;;;;;;;4.57;75.61;100864.19;4434101;26;19937;-65
2024/04/18 04:29:55;;;;;;;;;;;;;;;4.55;75.78;100864.34;4408847;26;20364;-65
2024/04/18 04:31:56;;;;;;;;;;;;;;;4.55;75.51;100869.69;4406807;26;20479;-65
2024/04/18 04:34:00;;;;;;;;;;;;;;;4.55;75.92;100868.84;4407729;26;19930;-65
2024/04/18 04:36:00;;;;;;;;;;;;;;;4.57;75.87;100864.19;4408269;26;20283;-66
2024/04/18 04:38:04;;;;;;;;;;;;;;;4.57;75.86;100870.38;4406638;26;19930;-66
2024/04/18 04:40:11;;;;;;;;;;;;;;;4.57;76.05;100873.06;4436039;26;19936;-65
2024/04/18 04:42:14;;;;;;;;;;;;;;;4.57;75.90;100870.38;4408074;26;19930;-65
2024/04/18 04:44:16;;;;;;;;;;;;;;;4.59;76.61;100881.81;4408422;26;19937;-65
2024/04/18 04:46:25;;;;;;;;;;;;;;;4.59;76.59;100876.47;4407004;26;21155;-66
2024/04/18 04:48:46;;;;;;;;;;;;;;;4.58;76.67;100877.44;4405985;26;19945;-66
2024/04/18 04:50:56;;;;;;;;;;;;;;;4.59;76.79;100884.50;4408830;26;19981;-66
2024/04/18 04:52:57;;;;;;;;;;;;;;;4.61;76.83;100887.03;4409941;26;20337;-66
2024/04/18 04:55:00;;;;;;;;;;;;;;;4.61;76.32;100890.56;4409195;26;19931;-66
2024/04/18 04:57:04;;;;;;;;;;;;;;;4.62;76.87;100886.88;4408153;26;20356;-66
2024/04/18 04:59:08;;;;;;;;;;;;;;;4.65;76.85;100894.63;4408120;26;19931;-66
2024/04/18 05:01:23;;;;;;;;;;;;;;;4.69;76.66;100900.59;4409715;26;19960;-66
2024/04/18 05:03:33;;;;;;;;;;;;;;;4.70;76.43;100896.91;4407871;26;20368;-66
2024/04/18 05:05:54;;;;;;;;;;;;;;;4.73;76.75;100903.81;4406434;26;19930;-66
2024/04/18 05:08:12;;;;;;;;;;;;;;;4.76;76.63;100908.91;4407630;26;20001;-66
2024/04/18 05:10:13;;;;;;;;;;;;;;;4.78;76.72;100912.28;4409039;26;19999;-66
2024/04/18 05:12:19;;;;;;;;;;;;;;;4.80;76.74;100910.34;4407976;26;19931;-66
2024/04/18 05:14:22;;;;;;;;;;;;;;;4.83;76.69;100910.91;4407721;26;19930;-66
2024/04/18 05:16:28;;;;;;;;;;;;;;;4.87;77.01;100911.47;4407873;26;20371;-66
2024/04/18 05:18:47;;;;;;;;;;;;;;;4.92;77.23;100919.97;4409034;26;19941;-67
2024/04/18 05:20:51;;;;;;;;;;;;;;;4.95;76.46;100921.50;4407168;26;19931;-66
2024/04/18 05:22:52;;;;;;;;;;;;;;;4.97;76.71;100922.22;4434364;26;20473;-67
2024/04/18 05:24:55;;;;;;;;;;;;;;;5.00;76.74;100928.16;4408386;26;20042;-66
2024/04/18 05:26:56;;;;;;;;;;;;;;;5.03;76.74;100933.25;4407112;26;19930;-66
2024/04/18 05:31:22;;;;;;;;;;;;;;;5.12;76.60;100942.25;4408184;26;19930;-66
2024/04/18 05:33:23;;;;;;;;;;;;;;;5.16;76.44;100945.53;4405831;26;19937;-66
2024/04/18 05:35:27;;;;;;;;;;;;;;;5.20;75.94;100947.81;4404022;26;19954;-66
2024/04/18 05:37:30;;;;;;;;;;;;;;;5.22;75.94;100940.47;4409963;26;19937;-66
2024/04/18 05:39:31;;;;;;;;;;;;;;;5.27;75.60;100937.38;4408579;26;19937;-66
2024/04/18 05:41:36;;;;;;;;;;;;;;;5.31;75.39;100952.19;4408319;26;19930;-66
2024/04/18 05:43:40;;;;;;;;;;;;;;;5.35;75.50;100950.09;4408222;26;20280;-66
2024/04/18 05:45:47;;;;;;;;;;;;;;;5.38;75.48;100944.47;4408623;26;19930;-66
2024/04/18 05:47:48;;;;;;;;;;;;;;;5.43;74.74;100947.56;4409226;26;19942;-66
2024/04/18 05:49:53;;;;;;;;;;;;;;;5.47;74.76;100951.66;4406359;26;19931;-66
2024/04/18 05:51:56;;;;;;;;;;;;;;;5.50;74.24;100947.84;4409552;26;20149;-66
2024/04/18 05:54:03;;;;;;;;;;;;;;;5.53;74.06;100951.13;4407831;26;20356;-66
2024/04/18 05:56:07;;;;;;;;;;;;;;;5.56;73.85;100952.66;4408123;26;19962;-66
2024/04/18 05:58:09;;;;;;;;;;;;;;;5.60;73.42;100952.22;4407394;26;19949;-66
2024/04/18 06:00:30;;;;;;;;;;;;;;;5.64;73.33;100962.69;4408055;26;19938;-66
2024/04/18 06:02:36;;;;;;;;;;;;;;;5.68;73.03;100967.63;4407436;26;20003;-67
2024/04/18 06:04:37;;;;;;;;;;;;;;;5.72;73.00;100963.69;4408124;26;22006;-67
2024/04/18 06:07:07;;;;;;;;;;;;;;;5.73;73.51;100949.28;4408551;26;19931;-67
2024/04/18 06:09:08;;;;;;;;;;;;;;;5.83;72.79;100967.19;4406122;26;20356;-66
2024/04/18 06:11:12;;;;;;;;;;;;;;;5.86;73.06;100966.91;4402716;26;19942;-66
2024/04/18 06:13:16;;;;;;;;;;;;;;;5.89;72.55;100972.88;4432484;26;20015;-66
2024/04/18 06:15:18;;;;;;;;;;;;;;;5.94;72.57;100970.59;4405544;26;19937;-66
2024/04/18 06:17:21;;;;;;;;;;;;;;;5.98;71.94;100971.19;4403399;26;19930;-66
2024/04/18 06:19:27;;;;;;;;;;;;;;;6.02;71.85;100977.09;4405559;26;20354;-66
2024/04/18 06:21:31;;;;;;;;;;;;;;;6.06;71.81;100982.03;4407361;26;19930;-66
2024/04/18 06:23:35;;;;;;;;;;;;;;;6.11;72.15;100986.97;4405852;26;19937;-66
2024/04/18 06:25:53;;;;;;;;;;;;;;;6.16;72.01;100989.25;4406115;26;20361;-66
2024/04/18 06:27:54;;;;;;;;;;;;;;;6.19;71.63;100989.81;4406699;26;19930;-66
2024/04/18 06:29:58;;;;;;;;;;;;;;;6.25;71.82;100985.72;4407075;26;19930;-66
2024/04/18 06:32:02;;;;;;;;;;;;;;;6.29;71.70;100989.81;4406842;26;19938;-66
2024/04/18 06:34:05;;;;;;;;;;;;;;;6.32;71.60;100995.72;4406599;26;20394;-66
2024/04/18 06:36:10;;;;;;;;;;;;;;;6.37;71.04;100997.16;4404350;26;20032;-66
2024/04/18 06:38:14;;;;;;;;;;;;;;;6.41;71.36;100993.16;4406481;26;19934;-66
2024/04/18 06:40:15;;;;;;;;;;;;;;;6.45;70.88;100995.41;4407198;26;19930;-65
2024/04/18 06:42:19;;;;;;;;;;;;;;;6.49;71.02;100999.53;4404702;26;19942;-66
2024/04/18 06:44:22;;;;;;;;;;;;;;;6.52;70.47;101006.44;4406425;26;19930;-66
2024/04/18 06:46:23;;;;;;;;;;;;;;;6.56;70.08;100996.25;4405948;26;20338;-66
2024/04/18 06:48:27;;;;;;;;;;;;;;;6.60;70.43;100995.81;4407431;26;19941;-67
2024/04/18 06:50:31;;;;;;;;;;;;;;;6.64;69.85;101001.75;4407595;26;20403;-66
2024/04/18 06:52:40;;;;;;;;;;;;;;;6.66;70.18;100995.25;4404367;26;20247;-66
2024/04/18 06:54:44;;;;;;;;;;;;;;;6.71;69.99;101004.69;4406541;26;20044;-66
2024/04/18 06:56:47;;;;;;;;;;;;;;;6.73;69.44;100998.19;4406419;26;19930;-66
2024/04/18 06:58:51;;;;;;;;;;;;;;;6.78;69.43;101005.81;4406455;26;19933;-66
2024/04/18 07:01:14;;;;;;;;;;;;;;;6.80;68.98;101010.03;4404746;26;20003;-66
2024/04/18 07:03:33;;;;;;;;;;;;;;;6.83;69.35;101009.75;4406164;26;19930;-66
2024/04/18 07:05:37;;;;;;;;;;;;;;;6.87;69.18;101014.84;4404290;26;19942;-66
2024/04/18 07:08:02;;;;;;;;;;;;;;;6.91;69.34;101010.84;4401572;26;21584;-66
2024/04/18 07:10:09;;;;;;;;;;;;;;;6.93;69.21;101016.91;4405528;26;19930;-66
2024/04/18 07:12:30;;;;;;;;;;;;;;;6.97;68.76;101021.00;4408555;26;20368;-66
2024/04/18 07:14:53;;;;;;;;;;;;;;;7.01;68.66;101025.94;4407087;26;19930;-66
2024/04/18 07:17:17;;;;;;;;;;;;;;;7.04;68.16;101024.81;4405049;26;20350;-66
2024/04/18 07:19:40;;;;;;;;;;;;;;;7.07;68.33;101029.88;4407199;26;19934;-67
2024/04/18 07:21:42;;;;;;;;;;;;;;;7.10;68.17;101036.78;4407776;26;19938;-66
2024/04/18 07:23:57;;;;;;;;;;;;;;;7.13;67.59;101032.00;4406816;26;20363;-66
2024/04/18 07:26:19;;;;;;;;;;;;;;;7.17;67.83;101033.38;4402743;26;19940;-66
2024/04/18 07:28:20;;;;;;;;;;;;;;;7.21;67.34;101033.94;4407347;26;19930;-66
2024/04/18 07:30:23;;;;;;;;;;;;;;;7.24;66.99;101035.47;4407618;26;19930;-66
2024/04/18 07:32:24;;;;;;;;;;;;;;;7.27;66.57;101035.16;4406605;26;20208;-66
2024/04/18 07:34:28;;;;;;;;;;;;;;;7.29;66.71;101043.91;4437332;26;20388;-66
2024/04/18 07:36:30;;;;;;;;;;;;;;;7.32;66.21;101030.19;4409380;26;19930;-66
2024/04/18 07:38:43;;;;;;;;;;;;;;;7.36;66.23;101037.81;4407409;26;19958;-66
2024/04/18 07:40:50;;;;;;;;;;;;;;;7.39;65.85;101042.03;4407602;26;19938;-66
2024/04/18 07:42:50;;;;;;;;;;;;;;;7.42;65.61;101038.22;4407097;26;19937;-66
2024/04/18 07:44:54;;;;;;;;;;;;;;;7.45;65.33;101036.06;4407297;26;20000;-66
2024/04/18 07:46:55;;;;;;;;;;;;;;;7.47;65.53;101042.13;4408345;26;19938;-66
2024/04/18 07:48:59;;;;;;;;;;;;;;;7.50;65.65;101038.31;4408603;26;19937;-66
2024/04/18 07:51:02;;;;;;;;;;;;;;;7.52;65.52;101039.88;4407681;26;19930;-66
2024/04/18 07:53:03;;;;;;;;;;;;;;;7.55;64.97;101042.25;4408552;26;19938;-66
2024/04/18 07:55:08;;;;;;;;;;;;;;;7.58;64.69;101057.22;4408036;26;19937;-66
2024/04/18 07:57:14;;;;;;;;;;;;;;;7.61;64.43;101053.41;4406935;26;20375;-66
2024/04/18 07:59:16;;;;;;;;;;;;;;;7.63;64.60;101046.03;4406912;26;20240;-66
2024/04/18 08:01:19;;;;;;;;;;;;;;;7.65;64.37;101050.25;4407237;26;19930;-66
2024/04/18 08:03:23;;;;;;;;;;;;;;;7.68;63.94;101055.34;4407969;26;20017;-66
2024/04/18 08:05:26;;;;;;;;;;;;;;;7.70;63.82;101047.97;4406886;26;20009;-66
2024/04/18 08:07:30;;;;;;;;;;;;;;;7.73;63.98;101055.72;4406384;26;19930;-66
2024/04/18 08:09:31;;;;;;;;;;;;;;;7.76;63.96;101060.81;4406842;26;19937;-66
2024/04/18 08:11:35;;;;;;;;;;;;;;;7.79;63.86;101056.97;4406712;26;20424;-66
2024/04/18 08:13:38;;;;;;;;;;;;;;;7.81;63.69;101054.13;4408006;26;19931;-66
2024/04/18 08:15:43;;;;;;;;;;;;;;;7.84;63.45;101061.91;4406409;26;19961;-66
2024/04/18 08:17:44;;;;;;;;;;;;;;;7.86;63.70;101060.72;4407387;26;19934;-66
2024/04/18 08:19:48;;;;;;;;;;;;;;;7.89;63.47;101059.59;4406972;26;19941;-66
2024/04/18 08:21:49;;;;;;;;;;;;;;;7.92;62.87;101065.50;4407105;26;19930;-66
2024/04/18 08:23:53;;;;;;;;;;;;;;;7.96;62.82;101063.34;4407997;26;19934;-66
2024/04/18 08:25:56;;;;;;;;;;;;;;;7.98;62.55;101056.00;4407422;26;20354;-66
2024/04/18 08:28:00;;;;;;;;;;;;;;;8.01;62.33;101058.38;4407259;26;19954;-66
2024/04/18 08:30:07;;;;;;;;;;;;;;;8.04;62.22;101065.28;4407927;26;20360;-66
2024/04/18 08:32:08;;;;;;;;;;;;;;;8.06;62.04;101066.84;4404690;26;20363;-66
2024/04/18 08:34:12;;;;;;;;;;;;;;;8.09;61.82;101058.47;4403720;26;19987;-66
2024/04/18 08:36:15;;;;;;;;;;;;;;;8.14;61.63;101062.53;4404389;26;19930;-66
2024/04/18 08:38:17;;;;;;;;;;;;;;;8.16;61.61;101061.38;4404881;26;20300;-66
2024/04/18 08:40:21;;;;;;;;;;;;;;;8.18;61.33;101064.78;4405939;26;20007;-67
2024/04/18 08:42:25;;;;;;;;;;;;;;;8.22;61.08;101059.94;4405876;26;20361;-66
2024/04/18 08:44:29;;;;;;;;;;;;;;;8.25;60.76;101055.06;4404425;26;20006;-66
2024/04/18 08:48:47;;;;;;;;;;;;;;;8.34;60.18;101056.00;4399977;26;19930;-67
2024/04/18 08:50:51;;;;;;;;;;;;;;;8.36;59.89;101056.69;4398566;26;19930;-67
2024/04/18 08:52:54;;;;;;;;;;;;;;;8.39;59.81;101056.38;4399577;26;19938;-67
2024/04/18 08:54:58;;;;;;;;;;;;;;;8.40;59.91;101044.63;4401814;26;20358;-67
2024/04/18 08:57:03;;;;;;;;;;;;;;;8.44;59.56;101053.25;4404553;26;20349;-67
2024/04/18 08:59:06;;;;;;;;;;;;;;;8.45;59.18;101047.72;4405191;26;19931;-67
2024/04/18 09:01:11;;;;;;;;;;;;;;;8.49;58.96;101045.53;4405234;26;19937;-67
2024/04/18 09:03:18;;;;;;;;;;;;;;;8.51;59.00;101051.63;4405481;26;19937;-67
2024/04/18 09:05:21;;;;;;;;;;;;;;;8.53;58.57;101046.94;4405395;26;19930;-67
2024/04/18 09:07:25;;;;;;;;;;;;;;;8.56;58.42;101046.63;4405400;26;19933;-67
2024/04/18 09:09:29;;;;;;;;;;;;;;;8.60;58.36;101056.06;4404201;26;19930;-67
2024/04/18 09:11:33;;;;;;;;;;;;;;;8.63;58.29;101052.22;4408852;26;20372;-67
2024/04/18 09:13:34;;;;;;;;;;;;;;;8.63;58.29;101055.75;4406530;26;20000;-67
2024/04/18 09:15:38;;;;;;;;;;;;;;;8.65;58.16;101052.91;4407968;26;19930;-67
2024/04/18 09:17:42;;;;;;;;;;;;;;;8.66;57.91;101052.75;4407877;26;20410;-67
2024/04/18 09:19:46;;;;;;;;;;;;;;;8.69;57.93;101051.59;4409559;26;19973;-67
2024/04/18 09:21:52;;;;;;;;;;;;;;;8.70;57.72;101047.03;4419541;26;20355;-67
2024/04/18 09:23:53;;;;;;;;;;;;;;;8.69;57.58;101046.22;4408508;26;20371;-67
2024/04/18 09:25:57;;;;;;;;;;;;;;;8.73;57.27;101057.50;4408358;26;19958;-67
2024/04/18 09:27:59;;;;;;;;;;;;;;;8.75;57.25;101058.22;4406343;26;19930;-67
2024/04/18 09:30:02;;;;;;;;;;;;;;;8.74;57.00;101054.66;4408164;26;19931;-67
2024/04/18 09:32:05;;;;;;;;;;;;;;;8.76;57.19;101055.38;4407330;26;19958;-67
2024/04/18 09:34:09;;;;;;;;;;;;;;;8.77;56.97;101061.59;4407292;26;19989;-67
2024/04/18 09:36:12;;;;;;;;;;;;;;;8.78;56.83;101065.97;4407768;26;20264;-67
2024/04/18 09:38:18;;;;;;;;;;;;;;;8.78;56.73;101058.72;4409144;26;19931;-67
2024/04/18 09:40:23;;;;;;;;;;;;;;;8.80;56.72;101063.97;4407854;26;20380;-67
2024/04/18 09:42:31;;;;;;;;;;;;;;;8.79;56.73;101060.44;4407011;26;19942;-67
2024/04/18 09:44:35;;;;;;;;;;;;;;;8.81;56.92;101065.66;4406017;26;20394;-67
2024/04/18 09:46:38;;;;;;;;;;;;;;;8.80;56.74;101067.50;4417430;26;19934;-67
2024/04/18 09:48:39;;;;;;;;;;;;;;;8.81;56.38;101055.72;4434931;26;19930;-67
2024/04/18 09:50:45;;;;;;;;;;;;;;;8.82;56.53;101060.13;4436280;26;20283;-67
2024/04/18 09:52:49;;;;;;;;;;;;;;;8.83;56.47;101063.66;4435678;26;19930;-67
2024/04/18 09:54:53;;;;;;;;;;;;;;;8.82;56.49;101057.44;4435894;26;20471;-67
2024/04/18 09:56:58;;;;;;;;;;;;;;;8.84;56.39;101059.97;4435725;26;19929;-67
2024/04/18 09:58:59;;;;;;;;;;;;;;;8.84;56.21;101058.09;4436768;26;20390;-67
2024/04/18 10:01:03;;;;;;;;;;;;;;;8.85;56.18;101067.03;4436200;26;20366;-67
2024/04/18 10:03:08;;;;;;;;;;;;;;;8.85;56.05;101061.63;4434820;26;19930;-67
2024/04/18 10:05:12;;;;;;;;;;;;;;;8.84;55.80;101060.81;4435195;26;20393;-67
2024/04/18 10:07:16;;;;;;;;;;;;;;;8.84;55.71;101060.81;4436396;26;19961;-67
2024/04/18 10:09:20;;;;;;;;;;;;;;;8.86;55.53;101057.94;4436401;26;19930;-67
2024/04/18 10:11:25;;;;;;;;;;;;;;;8.86;55.59;101057.94;4437073;26;19940;-67
2024/04/18 10:13:28;;;;;;;;;;;;;;;8.88;55.62;101060.47;4434921;26;19942;-67
2024/04/18 10:15:32;;;;;;;;;;;;;;;8.88;55.76;101061.31;4419134;26;19937;-67
2024/04/18 10:17:33;;;;;;;;;;;;;;;8.89;55.46;101056.78;4436858;26;19934;-67
2024/04/18 10:19:37;;;;;;;;;;;;;;;8.89;55.49;101060.31;4436583;26;19967;-67
2024/04/18 10:21:40;;;;;;;;;;;;;;;8.90;55.62;101053.91;4435298;26;19930;-67
2024/04/18 10:23:50;;;;;;;;;;;;;;;8.90;55.66;101062.00;4433551;26;19941;-67
2024/04/18 10:25:57;;;;;;;;;;;;;;;8.91;55.25;101054.78;4436789;26;19930;-67
2024/04/18 10:28:03;;;;;;;;;;;;;;;8.93;55.16;101055.47;4419719;26;19936;-67
2024/04/18 10:30:04;;;;;;;;;;;;;;;8.94;55.27;101059.84;4436398;26;19937;-68
2024/04/18 10:32:08;;;;;;;;;;;;;;;8.94;55.36;101055.31;4436076;26;19930;-67
2024/04/18 10:34:12;;;;;;;;;;;;;;;8.95;55.25;101059.69;4437395;26;20375;-67
2024/04/18 10:36:13;;;;;;;;;;;;;;;8.97;55.10;101059.53;4436695;26;19945;-67
2024/04/18 10:38:25;;;;;;;;;;;;;;;8.97;55.05;101062.22;4436841;26;20095;-67
2024/04/18 10:40:29;;;;;;;;;;;;;;;8.98;55.33;101062.06;4435253;26;20341;-67
2024/04/18 10:42:36;;;;;;;;;;;;;;;8.99;55.24;101065.59;4419265;26;19943;-67
2024/04/18 10:44:43;;;;;;;;;;;;;;;9.00;55.30;101060.06;4447815;26;19957;-67
2024/04/18 10:46:46;;;;;;;;;;;;;;;9.02;54.98;101067.97;4433414;26;19961;-67
2024/04/18 10:48:51;;;;;;;;;;;;;;;9.02;55.26;101063.44;4407859;26;19930;-67
2024/04/18 10:50:55;;;;;;;;;;;;;;;9.03;55.30;101064.28;4407208;26;19955;-67
2024/04/18 10:52:58;;;;;;;;;;;;;;;9.04;55.12;101062.44;4418441;26;19937;-67
2024/04/18 10:55:02;;;;;;;;;;;;;;;9.05;54.97;101059.56;4406553;26;19938;-67
2024/04/18 10:57:03;;;;;;;;;;;;;;;9.07;55.16;101059.41;4405770;26;19938;-67
2024/04/18 10:59:09;;;;;;;;;;;;;;;9.07;55.02;101054.03;4407098;26;19931;-67
2024/04/18 11:01:19;;;;;;;;;;;;;;;9.08;54.97;101055.72;4406375;26;19938;-67
2024/04/18 11:03:20;;;;;;;;;;;;;;;9.08;55.02;101071.91;4405524;26;20271;-67